sensor_id;sensor_type;location;lat;lon;timestamp;P1;durP1;ratioP1;P2;durP2;ratioP2
45842;SDS011;31563;51.744;8.252;2023-11-19T00:00:12;0.40;;;0.20;;
45842;SDS011;31563;51.744;8.252;2023-11-19T00:02:41;1.23;;;0.20;;
45842;SDS011;31563;51.744;8.252;2023-11-19T00:05:09;0.20;;;0.20;;
45842;SDS011;31563;51.744;8.252;2023-11-19T00:07:39;0.50;;;0.20;;
45842;SDS011;31563;51.744;8.252;2023-11-19T00:10:09;0.22;;;0.20;;
45842;SDS011;31563;51.744;8.252;2023-11-19T00:12:39;0.57;;;0.28;;
45842;SDS011;31563;51.744;8.252;2023-11-19T00:15:08;0.30;;;0.20;;
45842;SDS011;31563;51.744;8.252;2023-11-19T00:17:38;0.22;;;0.17;;
45842;SDS011;31563;51.744;8.252;2023-11-19T00:20:11;0.50;;;0.20;;
45842;SDS011;31563;51.744;8.252;2023-11-19T00:22:39;0.40;;;0.20;;
45842;SDS011;31563;51.744;8.252;2023-11-19T00:25:12;0.28;;;0.20;;
45842;SDS011;31563;51.744;8.252;2023-11-19T00:27:41;0.30;;;0.25;;
45842;SDS011;31563;51.744;8.252;2023-11-19T00:30:11;0.35;;;0.30;;
45842;SDS011;31563;51.744;8.252;2023-11-19T00:35:09;0.38;;;0.30;;
45842;SDS011;31563;51.744;8.252;2023-11-19T00:37:37;0.50;;;0.20;;
45842;SDS011;31563;51.744;8.252;2023-11-19T00:40:06;0.20;;;0.20;;
45842;SDS011;31563;51.744;8.252;2023-11-19T00:42:38;0.30;;;0.25;;
45842;SDS011;31563;51.744;8.252;2023-11-19T00:45:06;0.23;;;0.20;;
45842;SDS011;31563;51.744;8.252;2023-11-19T00:47:36;0.20;;;0.10;;
45842;SDS011;31563;51.744;8.252;2023-11-19T00:50:05;0.20;;;0.20;;
45842;SDS011;31563;51.744;8.252;2023-11-19T00:52:35;0.55;;;0.20;;
45842;SDS011;31563;51.744;8.252;2023-11-19T00:55:04;0.20;;;0.20;;
45842;SDS011;31563;51.744;8.252;2023-11-19T01:00:04;0.50;;;0.20;;
45842;SDS011;31563;51.744;8.252;2023-11-19T01:02:36;0.20;;;0.10;;
45842;SDS011;31563;51.744;8.252;2023-11-19T01:05:04;0.30;;;0.20;;
45842;SDS011;31563;51.744;8.252;2023-11-19T01:07:35;0.20;;;0.10;;
45842;SDS011;31563;51.744;8.252;2023-11-19T01:10:03;0.50;;;0.20;;
45842;SDS011;31563;51.744;8.252;2023-11-19T01:12:32;0.55;;;0.15;;
45842;SDS011;31563;51.744;8.252;2023-11-19T01:15:00;0.82;;;0.20;;
45842;SDS011;31563;51.744;8.252;2023-11-19T01:17:29;0.17;;;0.17;;
45842;SDS011;31563;51.744;8.252;2023-11-19T01:19:57;0.30;;;0.20;;
45842;SDS011;31563;51.744;8.252;2023-11-19T01:22:26;0.10;;;0.10;;
45842;SDS011;31563;51.744;8.252;2023-11-19T01:24:54;0.60;;;0.28;;
45842;SDS011;31563;51.744;8.252;2023-11-19T01:27:22;0.20;;;0.20;;
45842;SDS011;31563;51.744;8.252;2023-11-19T01:29:50;0.10;;;0.10;;
45842;SDS011;31563;51.744;8.252;2023-11-19T01:32:18;0.40;;;0.20;;
45842;SDS011;31563;51.744;8.252;2023-11-19T01:34:47;0.20;;;0.20;;
45842;SDS011;31563;51.744;8.252;2023-11-19T01:37:15;0.45;;;0.20;;
45842;SDS011;31563;51.744;8.252;2023-11-19T01:39:43;0.50;;;0.20;;
45842;SDS011;31563;51.744;8.252;2023-11-19T01:42:24;0.30;;;0.20;;
45842;SDS011;31563;51.744;8.252;2023-11-19T01:44:59;0.47;;;0.20;;
45842;SDS011;31563;51.744;8.252;2023-11-19T01:47:28;0.20;;;0.10;;
45842;SDS011;31563;51.744;8.252;2023-11-19T01:49:59;0.85;;;0.20;;
45842;SDS011;31563;51.744;8.252;2023-11-19T01:52:29;0.20;;;0.20;;
45842;SDS011;31563;51.744;8.252;2023-11-19T01:54:57;0.17;;;0.17;;
45842;SDS011;31563;51.744;8.252;2023-11-19T01:57:25;0.10;;;0.10;;
45842;SDS011;31563;51.744;8.252;2023-11-19T01:59:53;0.40;;;0.17;;
45842;SDS011;31563;51.744;8.252;2023-11-19T02:02:21;0.10;;;0.10;;
45842;SDS011;31563;51.744;8.252;2023-11-19T02:04:50;0.10;;;0.10;;
45842;SDS011;31563;51.744;8.252;2023-11-19T02:07:21;0.20;;;0.10;;
45842;SDS011;31563;51.744;8.252;2023-11-19T02:09:49;0.32;;;0.20;;
45842;SDS011;31563;51.744;8.252;2023-11-19T02:12:17;0.40;;;0.20;;
45842;SDS011;31563;51.744;8.252;2023-11-19T02:14:46;0.47;;;0.20;;
45842;SDS011;31563;51.744;8.252;2023-11-19T02:20:01;0.20;;;0.20;;
45842;SDS011;31563;51.744;8.252;2023-11-19T02:22:31;0.95;;;0.10;;
45842;SDS011;31563;51.744;8.252;2023-11-19T02:24:59;0.10;;;0.10;;
45842;SDS011;31563;51.744;8.252;2023-11-19T02:27:40;0.30;;;0.20;;
45842;SDS011;31563;51.744;8.252;2023-11-19T02:30:12;0.25;;;0.10;;
45842;SDS011;31563;51.744;8.252;2023-11-19T02:32:41;0.32;;;0.20;;
45842;SDS011;31563;51.744;8.252;2023-11-19T02:35:09;0.17;;;0.17;;
45842;SDS011;31563;51.744;8.252;2023-11-19T02:37:37;0.35;;;0.20;;
45842;SDS011;31563;51.744;8.252;2023-11-19T02:40:06;0.10;;;0.10;;
45842;SDS011;31563;51.744;8.252;2023-11-19T02:42:36;0.20;;;0.10;;
45842;SDS011;31563;51.744;8.252;2023-11-19T02:45:06;0.40;;;0.20;;
45842;SDS011;31563;51.744;8.252;2023-11-19T02:47:40;1.60;;;0.20;;
45842;SDS011;31563;51.744;8.252;2023-11-19T02:50:08;0.25;;;0.20;;
45842;SDS011;31563;51.744;8.252;2023-11-19T02:52:40;0.75;;;0.22;;
45842;SDS011;31563;51.744;8.252;2023-11-19T02:55:08;0.10;;;0.10;;
45842;SDS011;31563;51.744;8.252;2023-11-19T02:57:39;0.20;;;0.20;;
45842;SDS011;31563;51.744;8.252;2023-11-19T03:00:14;0.20;;;0.10;;
45842;SDS011;31563;51.744;8.252;2023-11-19T03:02:42;0.22;;;0.10;;
45842;SDS011;31563;51.744;8.252;2023-11-19T03:07:41;0.22;;;0.10;;
45842;SDS011;31563;51.744;8.252;2023-11-19T03:10:12;0.52;;;0.20;;
45842;SDS011;31563;51.744;8.252;2023-11-19T03:12:41;0.20;;;0.10;;
45842;SDS011;31563;51.744;8.252;2023-11-19T03:15:09;0.68;;;0.20;;
45842;SDS011;31563;51.744;8.252;2023-11-19T03:17:39;0.20;;;0.17;;
45842;SDS011;31563;51.744;8.252;2023-11-19T03:20:08;0.17;;;0.10;;
45842;SDS011;31563;51.744;8.252;2023-11-19T03:22:41;0.10;;;0.10;;
45842;SDS011;31563;51.744;8.252;2023-11-19T03:25:10;0.40;;;0.20;;
45842;SDS011;31563;51.744;8.252;2023-11-19T03:27:39;0.65;;;0.20;;
45842;SDS011;31563;51.744;8.252;2023-11-19T03:30:09;0.30;;;0.10;;
45842;SDS011;31563;51.744;8.252;2023-11-19T03:32:38;0.67;;;0.20;;
45842;SDS011;31563;51.744;8.252;2023-11-19T03:35:07;0.32;;;0.10;;
45842;SDS011;31563;51.744;8.252;2023-11-19T03:37:36;0.45;;;0.10;;
45842;SDS011;31563;51.744;8.252;2023-11-19T03:40:06;0.32;;;0.13;;
45842;SDS011;31563;51.744;8.252;2023-11-19T03:42:34;0.40;;;0.20;;
45842;SDS011;31563;51.744;8.252;2023-11-19T03:45:02;0.55;;;0.30;;
45842;SDS011;31563;51.744;8.252;2023-11-19T03:47:30;0.20;;;0.20;;
45842;SDS011;31563;51.744;8.252;2023-11-19T03:49:59;0.32;;;0.10;;
45842;SDS011;31563;51.744;8.252;2023-11-19T03:52:27;1.50;;;0.20;;
45842;SDS011;31563;51.744;8.252;2023-11-19T03:54:55;0.17;;;0.15;;
45842;SDS011;31563;51.744;8.252;2023-11-19T03:57:23;0.40;;;0.20;;
45842;SDS011;31563;51.744;8.252;2023-11-19T03:59:51;1.27;;;0.20;;
45842;SDS011;31563;51.744;8.252;2023-11-19T04:02:19;0.13;;;0.10;;
45842;SDS011;31563;51.744;8.252;2023-11-19T04:04:47;0.45;;;0.20;;
45842;SDS011;31563;51.744;8.252;2023-11-19T04:07:16;0.65;;;0.20;;
45842;SDS011;31563;51.744;8.252;2023-11-19T04:09:44;0.88;;;0.10;;
45842;SDS011;31563;51.744;8.252;2023-11-19T04:12:13;0.65;;;0.20;;
45842;SDS011;31563;51.744;8.252;2023-11-19T04:14:40;0.60;;;0.20;;
45842;SDS011;31563;51.744;8.252;2023-11-19T04:17:08;0.10;;;0.10;;
45842;SDS011;31563;51.744;8.252;2023-11-19T04:19:36;1.25;;;0.30;;
45842;SDS011;31563;51.744;8.252;2023-11-19T04:22:07;0.40;;;0.15;;
45842;SDS011;31563;51.744;8.252;2023-11-19T04:24:37;0.40;;;0.20;;
45842;SDS011;31563;51.744;8.252;2023-11-19T04:27:05;1.27;;;0.27;;
45842;SDS011;31563;51.744;8.252;2023-11-19T04:29:32;0.60;;;0.20;;
45842;SDS011;31563;51.744;8.252;2023-11-19T04:32:00;0.93;;;0.20;;
45842;SDS011;31563;51.744;8.252;2023-11-19T04:34:29;0.47;;;0.20;;
45842;SDS011;31563;51.744;8.252;2023-11-19T04:36:57;0.52;;;0.30;;
45842;SDS011;31563;51.744;8.252;2023-11-19T04:39:38;0.55;;;0.25;;
45842;SDS011;31563;51.744;8.252;2023-11-19T04:42:06;1.20;;;0.25;;
45842;SDS011;31563;51.744;8.252;2023-11-19T04:44:34;0.85;;;0.20;;
45842;SDS011;31563;51.744;8.252;2023-11-19T04:47:02;0.82;;;0.20;;
45842;SDS011;31563;51.744;8.252;2023-11-19T04:49:31;1.08;;;0.40;;
45842;SDS011;31563;51.744;8.252;2023-11-19T04:51:59;1.77;;;0.20;;
45842;SDS011;31563;51.744;8.252;2023-11-19T04:54:29;0.20;;;0.20;;
45842;SDS011;31563;51.744;8.252;2023-11-19T04:56:58;1.40;;;0.30;;
45842;SDS011;31563;51.744;8.252;2023-11-19T04:59:26;1.07;;;0.30;;
45842;SDS011;31563;51.744;8.252;2023-11-19T05:01:54;1.55;;;0.40;;
45842;SDS011;31563;51.744;8.252;2023-11-19T05:04:22;1.42;;;0.40;;
45842;SDS011;31563;51.744;8.252;2023-11-19T05:06:50;1.90;;;0.40;;
45842;SDS011;31563;51.744;8.252;2023-11-19T05:09:18;2.95;;;0.40;;
45842;SDS011;31563;51.744;8.252;2023-11-19T05:11:46;2.25;;;0.50;;
45842;SDS011;31563;51.744;8.252;2023-11-19T05:14:19;2.85;;;0.60;;
45842;SDS011;31563;51.744;8.252;2023-11-19T05:16:47;2.15;;;0.70;;
45842;SDS011;31563;51.744;8.252;2023-11-19T05:19:16;2.28;;;0.52;;
45842;SDS011;31563;51.744;8.252;2023-11-19T05:21:44;1.35;;;0.40;;
45842;SDS011;31563;51.744;8.252;2023-11-19T05:24:13;1.85;;;0.40;;
45842;SDS011;31563;51.744;8.252;2023-11-19T05:26:41;2.90;;;0.47;;
45842;SDS011;31563;51.744;8.252;2023-11-19T05:29:08;1.25;;;0.30;;
45842;SDS011;31563;51.744;8.252;2023-11-19T05:31:38;1.65;;;0.60;;
45842;SDS011;31563;51.744;8.252;2023-11-19T05:34:09;2.03;;;0.57;;
45842;SDS011;31563;51.744;8.252;2023-11-19T05:36:38;2.10;;;0.60;;
45842;SDS011;31563;51.744;8.252;2023-11-19T05:39:06;2.63;;;0.70;;
45842;SDS011;31563;51.744;8.252;2023-11-19T05:41:35;2.35;;;0.50;;
45842;SDS011;31563;51.744;8.252;2023-11-19T05:44:03;3.17;;;0.60;;
45842;SDS011;31563;51.744;8.252;2023-11-19T05:46:31;2.72;;;0.70;;
45842;SDS011;31563;51.744;8.252;2023-11-19T05:49:08;1.73;;;0.45;;
45842;SDS011;31563;51.744;8.252;2023-11-19T05:51:36;3.60;;;0.70;;
45842;SDS011;31563;51.744;8.252;2023-11-19T05:54:05;2.85;;;0.50;;
45842;SDS011;31563;51.744;8.252;2023-11-19T05:56:33;3.28;;;0.70;;
45842;SDS011;31563;51.744;8.252;2023-11-19T05:59:02;3.17;;;0.80;;
45842;SDS011;31563;51.744;8.252;2023-11-19T06:01:33;4.03;;;1.00;;
45842;SDS011;31563;51.744;8.252;2023-11-19T06:04:02;3.67;;;0.77;;
45842;SDS011;31563;51.744;8.252;2023-11-19T06:06:32;2.60;;;0.60;;
45842;SDS011;31563;51.744;8.252;2023-11-19T06:09:00;3.65;;;0.85;;
45842;SDS011;31563;51.744;8.252;2023-11-19T06:11:35;2.72;;;0.65;;
45842;SDS011;31563;51.744;8.252;2023-11-19T06:14:03;7.45;;;2.03;;
45842;SDS011;31563;51.744;8.252;2023-11-19T06:16:32;9.80;;;2.10;;
45842;SDS011;31563;51.744;8.252;2023-11-19T06:18:59;6.93;;;1.58;;
45842;SDS011;31563;51.744;8.252;2023-11-19T06:21:28;5.93;;;1.33;;
45842;SDS011;31563;51.744;8.252;2023-11-19T06:23:58;7.05;;;1.98;;
45842;SDS011;31563;51.744;8.252;2023-11-19T06:26:26;7.90;;;1.80;;
45842;SDS011;31563;51.744;8.252;2023-11-19T06:28:54;6.57;;;1.92;;
45842;SDS011;31563;51.744;8.252;2023-11-19T06:31:22;12.65;;;3.00;;
45842;SDS011;31563;51.744;8.252;2023-11-19T06:33:50;10.50;;;2.47;;
45842;SDS011;31563;51.744;8.252;2023-11-19T06:36:19;10.25;;;2.42;;
45842;SDS011;31563;51.744;8.252;2023-11-19T06:38:47;11.18;;;2.38;;
45842;SDS011;31563;51.744;8.252;2023-11-19T06:41:17;9.98;;;2.45;;
45842;SDS011;31563;51.744;8.252;2023-11-19T06:43:45;7.43;;;2.40;;
45842;SDS011;31563;51.744;8.252;2023-11-19T06:46:16;8.52;;;1.90;;
45842;SDS011;31563;51.744;8.252;2023-11-19T06:48:44;13.18;;;3.45;;
45842;SDS011;31563;51.744;8.252;2023-11-19T06:51:12;11.80;;;2.55;;
45842;SDS011;31563;51.744;8.252;2023-11-19T06:53:40;8.85;;;2.08;;
45842;SDS011;31563;51.744;8.252;2023-11-19T06:56:18;8.05;;;2.72;;
45842;SDS011;31563;51.744;8.252;2023-11-19T06:58:50;7.55;;;1.98;;
45842;SDS011;31563;51.744;8.252;2023-11-19T07:01:18;6.38;;;2.20;;
45842;SDS011;31563;51.744;8.252;2023-11-19T07:03:46;10.35;;;2.40;;
45842;SDS011;31563;51.744;8.252;2023-11-19T07:06:15;8.07;;;2.40;;
45842;SDS011;31563;51.744;8.252;2023-11-19T07:08:44;8.05;;;2.25;;
45842;SDS011;31563;51.744;8.252;2023-11-19T07:11:12;8.07;;;2.55;;
45842;SDS011;31563;51.744;8.252;2023-11-19T07:13:44;9.13;;;2.63;;
45842;SDS011;31563;51.744;8.252;2023-11-19T07:16:13;7.53;;;2.17;;
45842;SDS011;31563;51.744;8.252;2023-11-19T07:18:41;8.20;;;2.25;;
45842;SDS011;31563;51.744;8.252;2023-11-19T07:21:10;8.07;;;2.47;;
45842;SDS011;31563;51.744;8.252;2023-11-19T07:23:38;9.20;;;2.65;;
45842;SDS011;31563;51.744;8.252;2023-11-19T07:26:06;7.65;;;2.53;;
45842;SDS011;31563;51.744;8.252;2023-11-19T07:28:35;7.18;;;2.42;;
45842;SDS011;31563;51.744;8.252;2023-11-19T07:31:05;9.50;;;2.75;;
45842;SDS011;31563;51.744;8.252;2023-11-19T07:33:34;10.18;;;2.63;;
45842;SDS011;31563;51.744;8.252;2023-11-19T07:36:02;8.05;;;2.25;;
45842;SDS011;31563;51.744;8.252;2023-11-19T07:38:30;8.40;;;2.33;;
45842;SDS011;31563;51.744;8.252;2023-11-19T07:40:58;8.57;;;2.50;;
45842;SDS011;31563;51.744;8.252;2023-11-19T07:43:26;7.90;;;2.53;;
45842;SDS011;31563;51.744;8.252;2023-11-19T07:45:54;8.93;;;2.25;;
45842;SDS011;31563;51.744;8.252;2023-11-19T07:48:26;11.98;;;2.75;;
45842;SDS011;31563;51.744;8.252;2023-11-19T07:50:54;8.25;;;2.30;;
45842;SDS011;31563;51.744;8.252;2023-11-19T07:53:23;9.02;;;2.47;;
45842;SDS011;31563;51.744;8.252;2023-11-19T07:55:51;9.27;;;2.63;;
45842;SDS011;31563;51.744;8.252;2023-11-19T07:58:18;11.55;;;3.20;;
45842;SDS011;31563;51.744;8.252;2023-11-19T08:00:47;7.10;;;1.98;;
45842;SDS011;31563;51.744;8.252;2023-11-19T08:03:15;10.38;;;3.22;;
45842;SDS011;31563;51.744;8.252;2023-11-19T08:05:44;7.78;;;2.15;;
45842;SDS011;31563;51.744;8.252;2023-11-19T08:08:12;11.02;;;3.15;;
45842;SDS011;31563;51.744;8.252;2023-11-19T08:10:40;6.20;;;1.83;;
45842;SDS011;31563;51.744;8.252;2023-11-19T08:13:09;9.60;;;2.57;;
45842;SDS011;31563;51.744;8.252;2023-11-19T08:15:37;6.32;;;2.00;;
45842;SDS011;31563;51.744;8.252;2023-11-19T08:18:05;9.32;;;2.42;;
45842;SDS011;31563;51.744;8.252;2023-11-19T08:20:33;8.43;;;2.28;;
45842;SDS011;31563;51.744;8.252;2023-11-19T08:23:03;7.38;;;2.25;;
45842;SDS011;31563;51.744;8.252;2023-11-19T08:25:31;7.68;;;2.25;;
45842;SDS011;31563;51.744;8.252;2023-11-19T08:28:00;6.25;;;2.05;;
45842;SDS011;31563;51.744;8.252;2023-11-19T08:30:29;9.43;;;2.53;;
45842;SDS011;31563;51.744;8.252;2023-11-19T08:32:57;9.02;;;2.30;;
45842;SDS011;31563;51.744;8.252;2023-11-19T08:35:29;7.57;;;2.58;;
45842;SDS011;31563;51.744;8.252;2023-11-19T08:37:57;9.30;;;2.22;;
45842;SDS011;31563;51.744;8.252;2023-11-19T08:40:27;7.60;;;2.45;;
45842;SDS011;31563;51.744;8.252;2023-11-19T08:42:55;9.98;;;2.40;;
45842;SDS011;31563;51.744;8.252;2023-11-19T08:45:24;9.60;;;2.45;;
45842;SDS011;31563;51.744;8.252;2023-11-19T08:47:53;6.72;;;2.47;;
45842;SDS011;31563;51.744;8.252;2023-11-19T08:50:21;7.78;;;2.42;;
45842;SDS011;31563;51.744;8.252;2023-11-19T08:52:50;7.07;;;2.45;;
45842;SDS011;31563;51.744;8.252;2023-11-19T08:55:18;10.45;;;2.60;;
45842;SDS011;31563;51.744;8.252;2023-11-19T08:57:47;8.48;;;2.25;;
45842;SDS011;31563;51.744;8.252;2023-11-19T09:00:15;8.10;;;2.80;;
45842;SDS011;31563;51.744;8.252;2023-11-19T09:02:44;7.93;;;2.23;;
45842;SDS011;31563;51.744;8.252;2023-11-19T09:05:12;7.05;;;2.40;;
45842;SDS011;31563;51.744;8.252;2023-11-19T09:07:40;7.70;;;2.20;;
45842;SDS011;31563;51.744;8.252;2023-11-19T09:10:09;6.45;;;1.98;;
45842;SDS011;31563;51.744;8.252;2023-11-19T09:12:38;6.35;;;2.20;;
45842;SDS011;31563;51.744;8.252;2023-11-19T09:15:07;5.85;;;2.28;;
45842;SDS011;31563;51.744;8.252;2023-11-19T09:17:37;7.22;;;2.35;;
45842;SDS011;31563;51.744;8.252;2023-11-19T09:20:06;8.15;;;2.22;;
45842;SDS011;31563;51.744;8.252;2023-11-19T09:22:35;8.45;;;2.42;;
45842;SDS011;31563;51.744;8.252;2023-11-19T09:25:03;8.65;;;2.58;;
45842;SDS011;31563;51.744;8.252;2023-11-19T09:27:31;9.68;;;2.60;;
45842;SDS011;31563;51.744;8.252;2023-11-19T09:29:59;5.45;;;2.05;;
45842;SDS011;31563;51.744;8.252;2023-11-19T09:32:28;6.93;;;2.40;;
45842;SDS011;31563;51.744;8.252;2023-11-19T09:34:56;8.25;;;2.95;;
45842;SDS011;31563;51.744;8.252;2023-11-19T09:37:23;7.75;;;2.67;;
45842;SDS011;31563;51.744;8.252;2023-11-19T09:39:51;12.32;;;3.13;;
45842;SDS011;31563;51.744;8.252;2023-11-19T09:42:19;12.38;;;3.72;;
45842;SDS011;31563;51.744;8.252;2023-11-19T09:44:47;17.80;;;4.28;;
45842;SDS011;31563;51.744;8.252;2023-11-19T09:47:16;14.95;;;3.97;;
45842;SDS011;31563;51.744;8.252;2023-11-19T09:49:47;15.32;;;4.80;;
45842;SDS011;31563;51.744;8.252;2023-11-19T09:52:16;12.85;;;3.13;;
45842;SDS011;31563;51.744;8.252;2023-11-19T09:54:44;10.80;;;3.40;;
45842;SDS011;31563;51.744;8.252;2023-11-19T09:57:12;11.82;;;3.20;;
45842;SDS011;31563;51.744;8.252;2023-11-19T09:59:43;13.07;;;3.40;;
45842;SDS011;31563;51.744;8.252;2023-11-19T10:04:42;13.43;;;3.22;;
45842;SDS011;31563;51.744;8.252;2023-11-19T10:07:12;10.63;;;2.90;;
45842;SDS011;31563;51.744;8.252;2023-11-19T10:09:40;15.00;;;3.83;;
45842;SDS011;31563;51.744;8.252;2023-11-19T10:12:09;12.27;;;3.67;;
45842;SDS011;31563;51.744;8.252;2023-11-19T10:14:37;11.98;;;3.20;;
45842;SDS011;31563;51.744;8.252;2023-11-19T10:17:06;13.80;;;3.65;;
45842;SDS011;31563;51.744;8.252;2023-11-19T10:19:35;14.70;;;3.70;;
45842;SDS011;31563;51.744;8.252;2023-11-19T10:22:04;11.48;;;3.15;;
45842;SDS011;31563;51.744;8.252;2023-11-19T10:24:33;10.55;;;2.88;;
45842;SDS011;31563;51.744;8.252;2023-11-19T10:27:06;12.48;;;2.92;;
45842;SDS011;31563;51.744;8.252;2023-11-19T10:29:36;14.00;;;3.22;;
45842;SDS011;31563;51.744;8.252;2023-11-19T10:32:04;12.98;;;3.55;;
45842;SDS011;31563;51.744;8.252;2023-11-19T10:34:52;10.77;;;3.17;;
45842;SDS011;31563;51.744;8.252;2023-11-19T10:37:31;11.52;;;3.33;;
45842;SDS011;31563;51.744;8.252;2023-11-19T10:40:03;12.82;;;3.55;;
45842;SDS011;31563;51.744;8.252;2023-11-19T10:42:32;12.35;;;2.95;;
45842;SDS011;31563;51.744;8.252;2023-11-19T10:45:00;10.82;;;3.25;;
45842;SDS011;31563;51.744;8.252;2023-11-19T10:47:28;11.30;;;3.30;;
45842;SDS011;31563;51.744;8.252;2023-11-19T10:50:00;9.27;;;2.67;;
45842;SDS011;31563;51.744;8.252;2023-11-19T10:52:28;10.50;;;2.53;;
45842;SDS011;31563;51.744;8.252;2023-11-19T10:54:56;10.30;;;2.95;;
45842;SDS011;31563;51.744;8.252;2023-11-19T10:57:30;9.48;;;2.22;;
45842;SDS011;31563;51.744;8.252;2023-11-19T11:00:02;7.78;;;2.35;;
45842;SDS011;31563;51.744;8.252;2023-11-19T11:02:36;8.15;;;2.40;;
45842;SDS011;31563;51.744;8.252;2023-11-19T11:05:08;7.93;;;2.63;;
45842;SDS011;31563;51.744;8.252;2023-11-19T11:07:38;9.00;;;2.38;;
45842;SDS011;31563;51.744;8.252;2023-11-19T11:10:07;7.30;;;2.63;;
45842;SDS011;31563;51.744;8.252;2023-11-19T11:12:38;9.65;;;2.40;;
45842;SDS011;31563;51.744;8.252;2023-11-19T11:15:09;8.43;;;2.63;;
45842;SDS011;31563;51.744;8.252;2023-11-19T11:17:39;9.57;;;2.40;;
45842;SDS011;31563;51.744;8.252;2023-11-19T11:20:09;8.63;;;2.40;;
45842;SDS011;31563;51.744;8.252;2023-11-19T11:22:39;10.70;;;3.00;;
45842;SDS011;31563;51.744;8.252;2023-11-19T11:25:29;7.93;;;2.50;;
45842;SDS011;31563;51.744;8.252;2023-11-19T11:28:08;12.30;;;2.97;;
45842;SDS011;31563;51.744;8.252;2023-11-19T11:30:46;12.23;;;3.03;;
45842;SDS011;31563;51.744;8.252;2023-11-19T11:33:32;11.45;;;2.97;;
45842;SDS011;31563;51.744;8.252;2023-11-19T11:36:11;7.90;;;2.35;;
45842;SDS011;31563;51.744;8.252;2023-11-19T11:38:45;10.93;;;2.90;;
45842;SDS011;31563;51.744;8.252;2023-11-19T11:41:16;7.47;;;2.47;;
45842;SDS011;31563;51.744;8.252;2023-11-19T11:43:48;8.73;;;2.95;;
45842;SDS011;31563;51.744;8.252;2023-11-19T11:49:25;10.27;;;3.00;;
45842;SDS011;31563;51.744;8.252;2023-11-19T11:51:59;10.07;;;2.60;;
45842;SDS011;31563;51.744;8.252;2023-11-19T11:54:30;9.07;;;2.25;;
45842;SDS011;31563;51.744;8.252;2023-11-19T11:57:06;8.77;;;2.28;;
45842;SDS011;31563;51.744;8.252;2023-11-19T11:59:49;6.10;;;2.10;;
45842;SDS011;31563;51.744;8.252;2023-11-19T12:02:18;6.90;;;2.80;;
45842;SDS011;31563;51.744;8.252;2023-11-19T12:04:49;9.82;;;2.40;;
45842;SDS011;31563;51.744;8.252;2023-11-19T12:07:19;7.75;;;2.13;;
45842;SDS011;31563;51.744;8.252;2023-11-19T12:09:49;9.85;;;3.22;;
45842;SDS011;31563;51.744;8.252;2023-11-19T12:12:21;8.38;;;2.45;;
45842;SDS011;31563;51.744;8.252;2023-11-19T12:17:36;9.07;;;2.42;;
45842;SDS011;31563;51.744;8.252;2023-11-19T12:20:06;9.23;;;2.63;;
45842;SDS011;31563;51.744;8.252;2023-11-19T12:22:35;8.27;;;2.03;;
45842;SDS011;31563;51.744;8.252;2023-11-19T12:27:33;8.25;;;2.47;;
45842;SDS011;31563;51.744;8.252;2023-11-19T12:30:03;8.75;;;2.78;;
45842;SDS011;31563;51.744;8.252;2023-11-19T12:32:41;8.60;;;2.55;;
45842;SDS011;31563;51.744;8.252;2023-11-19T12:35:10;7.70;;;2.28;;
45842;SDS011;31563;51.744;8.252;2023-11-19T12:37:39;9.23;;;2.47;;
45842;SDS011;31563;51.744;8.252;2023-11-19T12:40:12;10.20;;;2.28;;
45842;SDS011;31563;51.744;8.252;2023-11-19T12:42:41;9.73;;;2.97;;
45842;SDS011;31563;51.744;8.252;2023-11-19T12:45:10;7.68;;;2.28;;
45842;SDS011;31563;51.744;8.252;2023-11-19T12:47:40;7.22;;;2.15;;
45842;SDS011;31563;51.744;8.252;2023-11-19T12:50:08;10.82;;;2.85;;
45842;SDS011;31563;51.744;8.252;2023-11-19T12:52:37;7.53;;;2.53;;
45842;SDS011;31563;51.744;8.252;2023-11-19T12:55:23;9.13;;;2.95;;
45842;SDS011;31563;51.744;8.252;2023-11-19T12:57:56;7.72;;;2.53;;
45842;SDS011;31563;51.744;8.252;2023-11-19T13:00:27;7.43;;;2.15;;
45842;SDS011;31563;51.744;8.252;2023-11-19T13:02:56;7.65;;;2.58;;
45842;SDS011;31563;51.744;8.252;2023-11-19T13:05:26;7.03;;;2.15;;
45842;SDS011;31563;51.744;8.252;2023-11-19T13:07:58;10.10;;;2.70;;
45842;SDS011;31563;51.744;8.252;2023-11-19T13:10:30;7.07;;;2.50;;
45842;SDS011;31563;51.744;8.252;2023-11-19T13:13:00;9.05;;;2.45;;
45842;SDS011;31563;51.744;8.252;2023-11-19T13:15:33;5.10;;;1.73;;
45842;SDS011;31563;51.744;8.252;2023-11-19T13:18:02;5.38;;;1.70;;
45842;SDS011;31563;51.744;8.252;2023-11-19T13:20:30;5.43;;;1.50;;
45842;SDS011;31563;51.744;8.252;2023-11-19T13:22:59;6.55;;;1.67;;
45842;SDS011;31563;51.744;8.252;2023-11-19T13:25:28;4.97;;;1.63;;
45842;SDS011;31563;51.744;8.252;2023-11-19T13:27:57;6.10;;;1.40;;
45842;SDS011;31563;51.744;8.252;2023-11-19T13:30:25;5.82;;;1.40;;
45842;SDS011;31563;51.744;8.252;2023-11-19T13:32:55;13.45;;;2.95;;
45842;SDS011;31563;51.744;8.252;2023-11-19T13:35:23;10.23;;;2.78;;
45842;SDS011;31563;51.744;8.252;2023-11-19T13:37:53;13.02;;;3.65;;
45842;SDS011;31563;51.744;8.252;2023-11-19T13:40:21;11.57;;;3.40;;
45842;SDS011;31563;51.744;8.252;2023-11-19T13:42:50;10.10;;;2.90;;
45842;SDS011;31563;51.744;8.252;2023-11-19T13:45:19;9.73;;;2.50;;
45842;SDS011;31563;51.744;8.252;2023-11-19T13:47:47;9.57;;;2.88;;
45842;SDS011;31563;51.744;8.252;2023-11-19T13:50:16;7.80;;;2.50;;
45842;SDS011;31563;51.744;8.252;2023-11-19T13:52:45;7.53;;;2.67;;
45842;SDS011;31563;51.744;8.252;2023-11-19T13:55:13;9.97;;;2.67;;
45842;SDS011;31563;51.744;8.252;2023-11-19T13:57:42;9.30;;;2.10;;
45842;SDS011;31563;51.744;8.252;2023-11-19T14:00:10;9.00;;;2.60;;
45842;SDS011;31563;51.744;8.252;2023-11-19T14:02:40;11.73;;;2.63;;
45842;SDS011;31563;51.744;8.252;2023-11-19T14:05:08;10.90;;;2.72;;
45842;SDS011;31563;51.744;8.252;2023-11-19T14:07:39;7.63;;;2.05;;
45842;SDS011;31563;51.744;8.252;2023-11-19T14:10:07;6.80;;;2.25;;
45842;SDS011;31563;51.744;8.252;2023-11-19T14:12:37;6.90;;;1.83;;
45842;SDS011;31563;51.744;8.252;2023-11-19T14:15:06;8.18;;;2.42;;
45842;SDS011;31563;51.744;8.252;2023-11-19T14:17:35;6.60;;;2.05;;
45842;SDS011;31563;51.744;8.252;2023-11-19T14:20:04;7.75;;;2.50;;
45842;SDS011;31563;51.744;8.252;2023-11-19T14:22:40;6.63;;;1.88;;
45842;SDS011;31563;51.744;8.252;2023-11-19T14:25:08;10.40;;;2.40;;
45842;SDS011;31563;51.744;8.252;2023-11-19T14:27:37;7.90;;;2.65;;
45842;SDS011;31563;51.744;8.252;2023-11-19T14:30:06;6.18;;;1.77;;
45842;SDS011;31563;51.744;8.252;2023-11-19T14:32:35;6.72;;;2.28;;
45842;SDS011;31563;51.744;8.252;2023-11-19T14:35:03;8.35;;;2.45;;
45842;SDS011;31563;51.744;8.252;2023-11-19T14:37:31;5.25;;;2.00;;
45842;SDS011;31563;51.744;8.252;2023-11-19T14:40:01;6.07;;;2.05;;
45842;SDS011;31563;51.744;8.252;2023-11-19T14:42:30;6.95;;;1.88;;
45842;SDS011;31563;51.744;8.252;2023-11-19T14:44:58;6.90;;;2.20;;
45842;SDS011;31563;51.744;8.252;2023-11-19T14:47:26;6.45;;;1.60;;
45842;SDS011;31563;51.744;8.252;2023-11-19T14:49:55;6.95;;;2.10;;
45842;SDS011;31563;51.744;8.252;2023-11-19T14:52:23;6.15;;;1.75;;
45842;SDS011;31563;51.744;8.252;2023-11-19T14:54:51;6.68;;;2.10;;
45842;SDS011;31563;51.744;8.252;2023-11-19T14:57:21;5.85;;;1.60;;
45842;SDS011;31563;51.744;8.252;2023-11-19T14:59:49;6.85;;;1.92;;
45842;SDS011;31563;51.744;8.252;2023-11-19T15:02:17;8.00;;;2.10;;
45842;SDS011;31563;51.744;8.252;2023-11-19T15:04:48;6.75;;;2.05;;
45842;SDS011;31563;51.744;8.252;2023-11-19T15:07:16;7.68;;;2.35;;
45842;SDS011;31563;51.744;8.252;2023-11-19T15:09:44;7.15;;;2.17;;
45842;SDS011;31563;51.744;8.252;2023-11-19T15:12:12;7.10;;;1.60;;
45842;SDS011;31563;51.744;8.252;2023-11-19T15:14:42;7.75;;;1.90;;
45842;SDS011;31563;51.744;8.252;2023-11-19T15:17:09;8.57;;;2.17;;
45842;SDS011;31563;51.744;8.252;2023-11-19T15:19:37;6.03;;;2.10;;